Time;durP1;ratioP1;P1;durP2;ratioP2;P2;SDS_P1;SDS_P2;PMS_P1;PMS_P2;Temp;Humidity;BMP_temperature;BMP_pressure;BME280_temperature;BME280_humidity;BME280_pressure;Samples;Min_cycle;Max_cycle;Signal;HPM_P1;HPM_P2
2023/10/16 00:02:22;;;;;;;4.13;1.83;;;5.60;64.20;;;;;;5068746;28;20032;-61
2023/10/16 00:04:49;;;;;;;4.40;1.95;;;5.60;64.20;;;;;;5086992;28;20024;-60
2023/10/16 00:07:21;;;;;;;3.10;2.00;;;5.60;64.40;;;;;;5090812;28;20025;-60
2023/10/16 00:09:53;;;;;;;4.13;1.90;;;5.50;64.30;;;;;;5082944;28;20545;-60
2023/10/16 00:12:19;;;;;;;2.13;1.50;;;5.50;64.30;;;;;;5085523;28;20583;-61
2023/10/16 00:14:46;;;;;;;2.53;1.70;;;5.50;64.40;;;;;;5086207;28;20027;-60
2023/10/16 00:17:14;;;;;;;1.98;1.50;;;5.50;64.40;;;;;;5086076;28;20028;-60
2023/10/16 00:19:44;;;;;;;5.15;1.90;;;5.40;64.50;;;;;;5082283;28;20401;-60
2023/10/16 00:22:16;;;;;;;5.90;1.95;;;5.50;64.60;;;;;;5086616;28;20032;-62
2023/10/16 00:24:51;;;;;;;2.60;2.03;;;5.40;64.60;;;;;;5087190;28;20139;-60
2023/10/16 00:27:16;;;;;;;1.70;1.40;;;5.40;64.90;;;;;;5070964;28;20024;-61
2023/10/16 00:29:45;;;;;;;3.75;1.73;;;5.40;64.70;;;;;;5086150;28;20070;-60
2023/10/16 00:32:11;;;;;;;2.47;1.42;;;5.40;65.00;;;;;;5101826;28;20036;-60
2023/10/16 00:34:38;;;;;;;5.53;1.67;;;5.40;65.00;;;;;;5088635;28;20498;-60
2023/10/16 00:37:04;;;;;;;2.13;1.35;;;5.40;65.10;;;;;;5088926;28;20020;-60
2023/10/16 00:39:32;;;;;;;1.45;1.35;;;5.30;65.10;;;;;;5085315;28;20028;-61
2023/10/16 00:41:58;;;;;;;2.70;1.42;;;5.30;65.00;;;;;;5089606;28;20023;-60
2023/10/16 00:44:34;;;;;;;2.65;1.60;;;5.30;64.70;;;;;;5084882;28;20024;-61
2023/10/16 00:47:04;;;;;;;2.85;1.50;;;5.30;64.80;;;;;;5012768;28;20024;-60
2023/10/16 00:49:34;;;;;;;4.75;1.60;;;5.30;64.90;;;;;;5087946;28;20028;-60
2023/10/16 00:52:04;;;;;;;2.42;1.35;;;5.30;65.00;;;;;;5086347;28;20028;-60
2023/10/16 00:54:33;;;;;;;3.35;1.35;;;5.30;64.80;;;;;;5088790;28;20028;-60
2023/10/16 00:57:00;;;;;;;1.40;1.30;;;5.30;64.80;;;;;;5088751;28;20416;-60
2023/10/16 00:59:29;;;;;;;2.47;1.48;;;5.20;64.90;;;;;;5086383;28;20024;-60
2023/10/16 01:02:09;;;;;;;1.88;1.20;;;5.20;65.10;;;;;;5084870;28;20031;-60
2023/10/16 01:04:35;;;;;;;3.40;1.15;;;5.20;65.10;;;;;;5083612;28;20494;-61
2023/10/16 01:07:01;;;;;;;2.83;1.60;;;5.20;65.00;;;;;;5086126;28;20016;-60
2023/10/16 01:09:33;;;;;;;2.95;1.20;;;5.20;64.90;;;;;;5085136;28;20559;-60
2023/10/16 01:11:59;;;;;;;1.80;1.23;;;5.20;65.00;;;;;;5099823;28;20046;-61
2023/10/16 01:14:25;;;;;;;3.97;1.70;;;5.20;65.10;;;;;;5086412;28;20424;-60
2023/10/16 01:16:54;;;;;;;2.25;1.50;;;5.20;65.20;;;;;;5087059;28;20829;-61
2023/10/16 01:19:20;;;;;;;1.35;1.00;;;5.10;65.10;;;;;;5091726;28;20028;-61
2023/10/16 01:21:46;;;;;;;3.03;1.10;;;5.10;65.10;;;;;;5065310;28;20024;-60
2023/10/16 01:24:12;;;;;;;3.35;1.35;;;5.10;65.20;;;;;;5086067;28;20051;-60
2023/10/16 01:26:42;;;;;;;4.90;1.73;;;5.10;65.30;;;;;;5088172;28;20027;-61
2023/10/16 01:29:09;;;;;;;1.35;1.20;;;5.10;65.40;;;;;;5072971;28;20566;-60
2023/10/16 01:31:36;;;;;;;2.15;1.20;;;5.10;65.30;;;;;;5086459;28;20111;-60
2023/10/16 01:34:10;;;;;;;1.38;1.05;;;5.10;65.30;;;;;;5085329;28;20085;-60
2023/10/16 01:36:37;;;;;;;2.92;1.20;;;5.00;65.30;;;;;;5079442;28;20043;-59
2023/10/16 01:39:08;;;;;;;1.20;1.10;;;5.00;65.40;;;;;;5085174;28;20135;-61
2023/10/16 01:41:34;;;;;;;2.33;1.20;;;5.00;65.20;;;;;;5084083;28;20026;-59
2023/10/16 01:44:09;;;;;;;5.18;1.45;;;5.00;65.10;;;;;;5072944;28;20024;-60
2023/10/16 01:46:35;;;;;;;1.58;1.27;;;5.00;65.20;;;;;;4992992;28;20032;-60
2023/10/16 01:49:04;;;;;;;2.25;1.23;;;5.00;65.30;;;;;;5084837;28;20031;-61
2023/10/16 01:51:30;;;;;;;1.77;1.15;;;4.90;65.20;;;;;;5083488;28;20034;-61
2023/10/16 01:53:56;;;;;;;2.58;1.38;;;4.90;65.20;;;;;;5084549;28;20012;-61
2023/10/16 01:56:22;;;;;;;2.63;1.20;;;4.90;65.20;;;;;;5085463;28;20020;-60
2023/10/16 01:58:52;;;;;;;1.50;1.17;;;4.90;65.10;;;;;;5084568;28;20024;-60
2023/10/16 02:01:20;;;;;;;2.03;1.15;;;4.90;65.20;;;;;;5085178;28;20024;-61
2023/10/16 02:03:49;;;;;;;1.42;1.30;;;4.90;65.40;;;;;;5083000;28;20072;-60
2023/10/16 02:06:16;;;;;;;3.22;1.65;;;4.80;65.50;;;;;;5084541;28;20024;-61
2023/10/16 02:08:43;;;;;;;1.88;1.10;;;4.80;65.50;;;;;;5084510;28;20031;-60
2023/10/16 02:11:12;;;;;;;1.92;1.40;;;4.80;65.60;;;;;;5080510;28;20202;-59
2023/10/16 02:13:41;;;;;;;2.80;1.50;;;4.80;65.60;;;;;;5085555;28;20056;-59
2023/10/16 02:16:12;;;;;;;2.30;1.30;;;4.80;65.70;;;;;;5085566;28;20023;-60
2023/10/16 02:18:41;;;;;;;1.75;1.20;;;4.70;65.60;;;;;;5083940;28;20346;-61
2023/10/16 02:21:13;;;;;;;2.38;1.10;;;4.70;65.50;;;;;;5086360;28;21264;-60
2023/10/16 02:23:43;;;;;;;1.27;1.17;;;4.70;65.70;;;;;;5084727;28;20529;-59
2023/10/16 02:26:09;;;;;;;1.60;1.20;;;4.70;65.80;;;;;;5084342;28;20048;-59
2023/10/16 02:28:36;;;;;;;4.38;1.40;;;4.70;65.70;;;;;;5089242;28;20030;-60
2023/10/16 02:31:16;;;;;;;1.85;1.02;;;4.70;65.80;;;;;;5087320;28;20040;-61
2023/10/16 02:33:50;;;;;;;2.03;1.20;;;4.70;66.00;;;;;;5085176;28;20016;-61
2023/10/16 02:36:19;;;;;;;2.88;1.20;;;4.70;65.80;;;;;;5084772;28;20477;-61
2023/10/16 02:38:48;;;;;;;2.22;1.52;;;4.70;65.60;;;;;;5078424;28;20083;-60
2023/10/16 02:41:16;;;;;;;6.28;1.40;;;4.60;65.60;;;;;;5086150;28;20384;-61
2023/10/16 02:43:41;;;;;;;2.85;1.30;;;4.60;65.60;;;;;;5088886;28;20016;-61
2023/10/16 02:46:11;;;;;;;3.08;1.20;;;4.60;65.70;;;;;;5089860;28;20028;-61
2023/10/16 02:48:38;;;;;;;1.30;1.00;;;4.60;65.80;;;;;;5086986;28;20560;-60
2023/10/16 02:51:06;;;;;;;2.40;1.10;;;4.60;65.70;;;;;;5099069;28;20043;-60
2023/10/16 02:53:34;;;;;;;3.45;1.25;;;4.60;65.70;;;;;;5088957;28;20020;-61
2023/10/16 02:56:17;;;;;;;2.95;1.27;;;4.60;65.70;;;;;;5090318;28;20059;-61
2023/10/16 02:58:43;;;;;;;2.00;1.20;;;4.60;65.90;;;;;;5088515;28;20028;-60
2023/10/16 03:01:15;;;;;;;1.38;1.00;;;4.50;65.80;;;;;;5092985;28;20044;-60
2023/10/16 03:03:43;;;;;;;4.30;1.30;;;4.50;65.80;;;;;;5090850;28;20039;-61
2023/10/16 03:06:09;;;;;;;3.20;1.20;;;4.50;65.70;;;;;;5090630;28;20030;-60
2023/10/16 03:08:36;;;;;;;1.25;0.98;;;4.50;65.60;;;;;;5090780;28;20058;-61
2023/10/16 03:11:13;;;;;;;1.20;1.10;;;4.50;65.60;;;;;;5089582;28;20055;-61
2023/10/16 03:13:39;;;;;;;1.98;1.20;;;4.50;65.60;;;;;;5088373;28;20031;-60
2023/10/16 03:16:15;;;;;;;3.95;1.30;;;4.50;65.50;;;;;;5091087;28;20483;-61
2023/10/16 03:18:44;;;;;;;3.22;1.13;;;4.50;65.60;;;;;;5089189;28;20042;-61
2023/10/16 03:23:43;;;;;;;3.78;1.48;;;4.40;65.70;;;;;;5089876;28;20034;-60
2023/10/16 03:26:11;;;;;;;1.40;1.10;;;4.40;65.80;;;;;;5090696;28;20844;-61
2023/10/16 03:28:37;;;;;;;1.98;1.70;;;4.40;65.80;;;;;;5089835;28;20027;-59
2023/10/16 03:31:03;;;;;;;2.60;1.30;;;4.40;65.80;;;;;;5087621;28;20036;-60
2023/10/16 03:33:29;;;;;;;3.25;1.30;;;4.40;65.90;;;;;;5088731;28;20031;-59
2023/10/16 03:35:57;;;;;;;3.40;1.75;;;4.40;65.80;;;;;;5098681;28;20490;-61
2023/10/16 03:38:27;;;;;;;1.83;1.20;;;4.40;65.80;;;;;;5074064;28;20035;-60
2023/10/16 03:40:53;;;;;;;2.10;1.40;;;4.40;65.80;;;;;;5089787;28;20036;-60
2023/10/16 03:43:19;;;;;;;2.85;1.67;;;4.30;65.70;;;;;;5093229;28;20020;-61
2023/10/16 03:45:45;;;;;;;3.40;1.17;;;4.30;65.70;;;;;;5035137;28;20077;-61
2023/10/16 03:48:11;;;;;;;4.40;1.23;;;4.30;65.80;;;;;;5100844;27;20039;-61
2023/10/16 03:50:42;;;;;;;2.38;1.40;;;4.30;66.00;;;;;;5089038;28;20039;-61
2023/10/16 03:53:08;;;;;;;2.35;1.35;;;4.30;66.00;;;;;;5088807;28;20027;-61
2023/10/16 03:55:44;;;;;;;2.25;1.23;;;4.30;65.90;;;;;;5087840;28;20055;-61
2023/10/16 03:58:13;;;;;;;2.67;1.20;;;4.30;66.20;;;;;;5087037;28;20347;-60
2023/10/16 04:00:58;;;;;;;2.38;1.30;;;4.30;66.00;;;;;;5088315;28;20053;-60
2023/10/16 04:03:26;;;;;;;2.15;1.20;;;4.30;66.10;;;;;;5082435;28;20032;-61
2023/10/16 04:05:53;;;;;;;1.85;1.50;;;4.30;66.00;;;;;;5087987;28;20024;-61
2023/10/16 04:08:21;;;;;;;2.78;1.60;;;4.30;66.10;;;;;;5092055;28;20032;-60
2023/10/16 04:10:48;;;;;;;2.08;1.05;;;4.20;66.10;;;;;;5090825;28;20042;-60
2023/10/16 04:13:15;;;;;;;2.15;1.40;;;4.20;65.90;;;;;;5087846;28;20060;-59
2023/10/16 04:23:52;;;;;;;1.38;1.20;;;4.20;66.00;;;;;;5090264;28;20042;-59
2023/10/16 04:31:57;;;;;;;;;;;4.10;65.80;;;;;;5090374;28;20047;-61
2023/10/16 04:50:31;;;;;;;8.90;4.20;;;4.00;65.80;;;;;;5086043;28;20557;-60
2023/10/16 05:06:14;;;;;;;28.70;21.92;;;3.90;66.30;;;;;;5086747;28;20115;-60
2023/10/16 05:22:02;;;;;;;8.20;3.65;;;3.90;66.20;;;;;;5085250;28;20129;-60
2023/10/16 06:14:11;;;;;;;7.18;2.42;;;3.80;67.10;;;;;;5092925;28;19965;-60
2023/10/16 06:16:40;;;;;;;2.63;1.80;;;3.90;66.10;;;;;;5090036;28;20027;-60
2023/10/16 06:19:14;;;;;;;5.20;1.67;;;3.90;67.00;;;;;;5091979;28;20016;-60
2023/10/16 06:21:46;;;;;;;2.72;1.80;;;3.90;66.60;;;;;;5084231;28;20032;-60
2023/10/16 06:27:24;;;;;;;2.90;1.88;;;4.00;67.00;;;;;;5043642;28;20041;-60
2023/10/16 06:29:50;;;;;;;3.15;2.03;;;4.10;66.90;;;;;;5037437;28;20045;-60
2023/10/16 06:32:20;;;;;;;9.48;3.55;;;4.10;66.80;;;;;;5035077;28;20039;-59
2023/10/16 06:34:50;;;;;;;6.18;3.00;;;4.20;67.10;;;;;;5040593;28;20114;-59
2023/10/16 06:37:21;;;;;;;4.30;2.38;;;4.20;67.10;;;;;;5041932;28;20036;-60
2023/10/16 06:39:54;;;;;;;5.72;2.60;;;4.30;67.00;;;;;;5047045;28;20050;-60
2023/10/16 06:42:23;;;;;;;2.87;1.63;;;4.40;67.20;;;;;;5040749;28;20034;-61
2023/10/16 06:44:56;;;;;;;4.00;1.98;;;4.50;67.20;;;;;;5039934;28;20055;-61
2023/10/16 06:47:41;;;;;;;3.88;1.88;;;4.60;67.10;;;;;;5044353;28;20132;-60
2023/10/16 06:52:51;;;;;;;4.32;2.10;;;4.70;67.10;;;;;;5043430;28;20095;-61
2023/10/16 06:55:17;;;;;;;6.10;2.58;;;4.80;67.10;;;;;;5043970;28;20115;-62
2023/10/16 06:57:43;;;;;;;5.38;1.90;;;4.90;67.20;;;;;;5038651;28;20021;-60
2023/10/16 07:00:22;;;;;;;5.57;2.38;;;5.00;67.20;;;;;;5042631;28;20025;-61
2023/10/16 07:02:50;;;;;;;5.20;2.53;;;5.10;67.20;;;;;;5078785;28;20024;-60
2023/10/16 07:05:15;;;;;;;5.22;2.55;;;5.30;67.20;;;;;;5086277;28;20028;-60
2023/10/16 07:07:41;;;;;;;6.70;2.40;;;5.40;67.30;;;;;;5084617;28;20433;-60
2023/10/16 07:10:13;;;;;;;3.88;2.40;;;5.50;67.20;;;;;;5086479;28;20073;-60
2023/10/16 07:12:56;;;;;;;9.65;2.10;;;5.60;67.10;;;;;;5082924;28;20033;-61
2023/10/16 07:15:25;;;;;;;5.07;2.50;;;5.70;67.00;;;;;;5075702;28;20031;-61
2023/10/16 07:17:51;;;;;;;6.07;2.97;;;5.90;66.90;;;;;;5085311;28;20048;-61
2023/10/16 07:20:30;;;;;;;9.75;2.50;;;6.00;66.70;;;;;;5087096;28;20097;-62
2023/10/16 07:22:59;;;;;;;4.60;2.28;;;6.10;66.70;;;;;;5081936;28;20629;-61
2023/10/16 07:25:37;;;;;;;4.20;2.05;;;6.30;66.50;;;;;;5078996;28;20040;-61
2023/10/16 07:28:08;;;;;;;7.57;2.10;;;6.50;66.50;;;;;;5083768;28;20028;-60
2023/10/16 07:30:35;;;;;;;7.57;2.42;;;6.60;66.30;;;;;;5083228;28;20036;-61
2023/10/16 07:33:01;;;;;;;10.00;2.60;;;6.70;66.10;;;;;;5086052;28;20039;-60
2023/10/16 07:35:27;;;;;;;5.95;2.03;;;6.90;66.20;;;;;;5085829;28;20016;-61
2023/10/16 07:37:55;;;;;;;2.63;1.80;;;7.00;66.00;;;;;;5084509;28;20529;-61
2023/10/16 07:40:21;;;;;;;4.28;1.90;;;7.10;65.80;;;;;;5089709;28;20034;-60
2023/10/16 07:42:52;;;;;;;4.18;2.28;;;7.20;65.60;;;;;;5086356;28;20039;-61
2023/10/16 07:45:19;;;;;;;8.38;2.38;;;7.30;65.40;;;;;;5091789;28;20020;-61
2023/10/16 07:47:47;;;;;;;4.85;2.40;;;7.50;65.40;;;;;;5090515;28;20448;-61
2023/10/16 07:50:13;;;;;;;5.63;2.53;;;7.50;65.30;;;;;;5086478;28;20108;-61
2023/10/16 07:52:41;;;;;;;5.07;2.60;;;7.60;65.40;;;;;;5069561;28;20039;-61
2023/10/16 07:55:17;;;;;;;3.67;2.42;;;7.80;65.40;;;;;;5092827;28;20069;-60
2023/10/16 07:57:44;;;;;;;5.00;2.28;;;7.90;65.40;;;;;;5084304;28;20024;-60
2023/10/16 08:00:14;;;;;;;6.68;2.70;;;8.00;65.20;;;;;;5089833;28;20016;-61
2023/10/16 08:02:44;;;;;;;6.13;2.33;;;8.20;65.20;;;;;;5070053;28;20031;-60
2023/10/16 08:05:15;;;;;;;6.93;2.75;;;8.40;65.30;;;;;;5071868;28;20115;-60
2023/10/16 08:07:46;;;;;;;8.27;2.70;;;8.50;65.20;;;;;;5089121;28;20142;-61
2023/10/16 08:13:11;;;;;;;5.53;2.53;;;8.90;65.00;;;;;;5085333;28;20069;-60
2023/10/16 08:15:37;;;;;;;6.10;2.78;;;9.10;64.80;;;;;;5086687;28;20231;-60
2023/10/16 08:18:09;;;;;;;4.43;2.78;;;9.20;64.60;;;;;;5087647;28;20016;-60
2023/10/16 08:21:24;;;;;;;6.30;2.92;;;9.40;64.40;;;;;;5092797;28;20412;-61
2023/10/16 08:23:21;;;;;;;4.53;2.97;;;9.50;64.20;;;;;;5083339;28;20047;-60
2023/10/16 08:25:47;;;;;;;8.80;3.15;;;9.60;63.90;;;;;;5085321;28;20091;-60
2023/10/16 08:28:35;;;;;;;11.20;3.67;;;9.70;63.90;;;;;;5086057;28;20048;-61
2023/10/16 08:33:48;;;;;;;8.02;3.80;;;9.90;63.50;;;;;;5084457;28;20046;-61
2023/10/16 08:36:15;;;;;;;6.45;4.13;;;10.00;63.40;;;;;;5090574;28;20095;-61
2023/10/16 08:38:44;;;;;;;10.88;4.18;;;10.10;63.40;;;;;;5084023;28;20082;-60
2023/10/16 08:41:14;;;;;;;6.78;4.57;;;10.20;63.50;;;;;;5084069;28;20644;-61
2023/10/16 08:43:53;;;;;;;7.45;4.18;;;10.30;63.50;;;;;;5083983;28;20029;-60
2023/10/16 08:46:24;;;;;;;6.53;3.97;;;10.50;63.50;;;;;;5083428;28;20036;-60
2023/10/16 08:48:52;;;;;;;5.43;3.30;;;10.60;63.50;;;;;;5085160;28;20052;-61
2023/10/16 08:51:19;;;;;;;4.85;2.97;;;10.80;63.40;;;;;;5086790;28;20058;-61
2023/10/16 08:53:45;;;;;;;6.88;3.50;;;10.90;63.00;;;;;;5087242;28;20438;-61
2023/10/16 08:56:17;;;;;;;4.55;3.20;;;11.00;63.00;;;;;;5088709;28;20095;-61
2023/10/16 08:58:49;;;;;;;3.58;2.50;;;11.20;63.00;;;;;;5088846;28;20111;-61
2023/10/16 09:01:17;;;;;;;3.78;2.80;;;11.30;62.90;;;;;;5064927;28;20032;-61
2023/10/16 09:03:59;;;;;;;3.25;2.42;;;11.40;62.70;;;;;;5087033;28;20032;-61
2023/10/16 09:06:25;;;;;;;6.20;2.92;;;11.60;62.60;;;;;;5086419;28;20028;-62
2023/10/16 09:08:52;;;;;;;5.20;3.03;;;11.70;62.60;;;;;;5089775;28;20031;-62
2023/10/16 09:11:19;;;;;;;3.88;2.53;;;11.80;62.30;;;;;;5085789;28;20127;-62
2023/10/16 09:13:50;;;;;;;4.90;3.05;;;11.90;61.90;;;;;;5088841;28;20051;-60
2023/10/16 09:16:15;;;;;;;3.78;2.47;;;12.00;62.00;;;;;;5088335;28;20045;-62
2023/10/16 09:18:42;;;;;;;4.53;2.80;;;12.20;61.70;;;;;;5082823;28;20028;-61
2023/10/16 09:21:13;;;;;;;4.15;2.92;;;12.30;61.30;;;;;;5090128;28;20024;-61
2023/10/16 09:23:51;;;;;;;4.13;3.00;;;12.40;61.10;;;;;;5083831;28;20024;-61
2023/10/16 09:26:17;;;;;;;4.55;2.90;;;12.50;60.70;;;;;;5085975;28;20205;-62
2023/10/16 09:28:47;;;;;;;5.47;3.03;;;12.60;60.50;;;;;;5070036;28;20053;-63
2023/10/16 09:31:18;;;;;;;6.15;2.90;;;12.70;60.10;;;;;;5089057;28;20498;-62
2023/10/16 09:33:50;;;;;;;3.63;2.90;;;12.80;59.80;;;;;;5083339;28;20024;-61
2023/10/16 09:36:21;;;;;;;3.70;2.40;;;12.90;59.60;;;;;;5086074;28;20417;-62
2023/10/16 09:38:53;;;;;;;6.70;2.97;;;12.90;59.40;;;;;;5087792;28;20085;-62
2023/10/16 09:43:56;;;;;;;4.47;2.88;;;13.00;59.50;;;;;;5088717;28;20500;-63
2023/10/16 09:49:13;;;;;;;6.15;3.15;;;13.10;59.00;;;;;;5085107;28;20167;-61
2023/10/16 09:51:39;;;;;;;3.88;2.67;;;13.20;59.10;;;;;;5084030;28;20046;-62
2023/10/16 09:54:09;;;;;;;5.45;2.72;;;13.30;59.00;;;;;;5089274;28;20124;-62
2023/10/16 09:56:39;;;;;;;4.18;2.78;;;13.40;58.80;;;;;;5085515;28;20376;-61
2023/10/16 09:59:32;;;;;;;4.78;2.80;;;13.40;58.70;;;;;;5083908;28;20028;-62
2023/10/16 10:02:05;;;;;;;3.20;2.35;;;13.50;58.20;;;;;;5078798;28;20031;-62
2023/10/16 10:04:35;;;;;;;8.90;2.85;;;13.50;58.30;;;;;;5086462;28;20111;-63
2023/10/16 10:07:11;;;;;;;5.90;2.42;;;13.60;58.30;;;;;;5087145;28;20036;-61
2023/10/16 10:09:44;;;;;;;3.38;2.35;;;13.60;58.00;;;;;;5088566;28;20403;-61
2023/10/16 10:12:22;;;;;;;3.00;2.10;;;13.70;57.80;;;;;;5086177;28;20528;-61
2023/10/16 10:15:12;;;;;;;2.97;2.10;;;13.70;57.70;;;;;;5088449;28;20430;-61
2023/10/16 10:17:39;;;;;;;3.08;1.90;;;13.70;57.50;;;;;;5084645;28;20024;-61
2023/10/16 10:20:16;;;;;;;3.00;1.70;;;13.70;56.70;;;;;;5085605;28;20029;-62
2023/10/16 10:22:45;;;;;;;2.83;2.10;;;13.70;57.20;;;;;;5087535;28;20024;-61
2023/10/16 10:25:41;;;;;;;4.25;2.40;;;13.70;57.50;;;;;;5082047;28;20393;-62
2023/10/16 10:28:22;;;;;;;3.35;2.30;;;13.80;56.90;;;;;;5082043;28;20447;-61
2023/10/16 10:30:49;;;;;;;5.45;2.50;;;13.80;56.30;;;;;;5100207;28;20044;-62
2023/10/16 10:33:37;;;;;;;4.00;2.25;;;13.90;56.90;;;;;;5081967;28;20016;-62
2023/10/16 10:36:36;;;;;;;4.70;2.45;;;14.00;55.60;;;;;;5084522;28;20429;-62
2023/10/16 10:39:25;;;;;;;5.53;2.30;;;14.00;55.70;;;;;;5073535;28;20887;-62
2023/10/16 10:41:54;;;;;;;2.00;1.60;;;14.00;55.90;;;;;;5084059;28;20031;-61
2023/10/16 10:44:37;;;;;;;2.40;1.80;;;14.10;56.40;;;;;;5087919;28;21094;-61
2023/10/16 10:47:17;;;;;;;4.00;2.00;;;14.10;56.10;;;;;;5018789;28;20039;-61
2023/10/16 10:49:43;;;;;;;3.78;1.85;;;14.20;55.50;;;;;;5084008;28;20085;-61
2023/10/16 10:52:12;;;;;;;2.63;1.83;;;14.20;56.20;;;;;;5084263;28;20069;-63
2023/10/16 10:54:44;;;;;;;5.47;1.45;;;14.30;56.60;;;;;;5083767;28;20968;-63
2023/10/16 10:57:20;;;;;;;3.30;1.40;;;14.40;56.60;;;;;;5089722;28;20192;-62
2023/10/16 10:59:55;;;;;;;1.92;1.35;;;14.50;55.40;;;;;;5083890;28;20592;-61
2023/10/16 11:05:33;;;;;;;2.08;1.10;;;14.70;55.30;;;;;;5040471;28;20415;-62
2023/10/16 11:08:25;;;;;;;2.40;1.40;;;14.80;54.70;;;;;;5041087;28;20044;-63
2023/10/16 11:10:47;;;;;;;2.10;1.30;;;14.80;53.50;;;;;;5044568;28;20131;-63
2023/10/16 11:13:18;;;;;;;3.03;1.30;;;14.90;53.60;;;;;;5043090;28;20200;-62
2023/10/16 11:15:53;;;;;;;1.83;1.42;;;14.90;54.20;;;;;;5042064;28;20041;-62
2023/10/16 11:18:20;;;;;;;1.20;1.10;;;14.90;53.30;;;;;;5045435;28;20425;-62
2023/10/16 11:20:53;;;;;;;1.90;0.98;;;15.00;54.10;;;;;;5045033;28;20067;-63
2023/10/16 11:23:21;;;;;;;1.90;1.15;;;15.10;53.80;;;;;;5044555;28;20041;-63
2023/10/16 11:25:51;;;;;;;1.98;1.30;;;15.10;53.50;;;;;;5048430;28;20052;-63
2023/10/16 11:28:31;;;;;;;2.35;1.30;;;15.20;53.60;;;;;;5046192;28;20031;-63
2023/10/16 11:30:59;;;;;;;2.13;1.13;;;15.30;52.70;;;;;;5041345;28;20499;-61
2023/10/16 11:33:44;;;;;;;1.55;1.08;;;15.30;52.00;;;;;;5044166;28;20358;-62
2023/10/16 11:36:11;;;;;;;;;;;15.40;51.30;;;;;;5045730;28;20136;-61
2023/10/16 11:38:37;;;;;;;0.85;0.77;;;15.40;51.50;;;;;;5049876;28;20247;-62
2023/10/16 11:41:12;;;;;;;1.40;1.00;;;15.50;51.50;;;;;;5045361;28;20039;-63
2023/10/16 11:43:47;;;;;;;2.63;1.00;;;15.40;50.70;;;;;;5085410;28;20024;-62
2023/10/16 11:46:28;;;;;;;1.35;0.95;;;15.40;50.70;;;;;;4980297;28;20015;-60
2023/10/16 11:51:57;;;;;;;1.55;0.82;;;15.50;50.40;;;;;;5085975;28;20113;-62
2023/10/16 11:54:24;;;;;;;4.93;1.10;;;15.50;51.10;;;;;;5088758;28;20075;-62
2023/10/16 11:56:53;;;;;;;1.17;0.90;;;15.60;50.80;;;;;;5091590;28;20394;-61
2023/10/16 11:59:20;;;;;;;0.90;0.90;;;15.60;51.00;;;;;;5087902;28;20433;-61
2023/10/16 12:01:46;;;;;;;1.85;0.80;;;15.60;50.10;;;;;;5086973;28;20020;-61
2023/10/16 12:04:15;;;;;;;0.98;0.63;;;15.70;49.90;;;;;;5087109;28;20142;-61
2023/10/16 12:06:44;;;;;;;1.33;0.93;;;15.70;49.70;;;;;;5089488;28;20035;-62
2023/10/16 12:09:13;;;;;;;1.38;0.80;;;15.80;50.10;;;;;;5086651;28;20039;-62
2023/10/16 12:11:42;;;;;;;1.50;0.90;;;15.80;49.80;;;;;;5090631;28;20035;-62
2023/10/16 12:14:13;;;;;;;1.42;1.10;;;15.90;49.70;;;;;;5087350;28;20024;-62
2023/10/16 12:16:48;;;;;;;0.85;0.75;;;16.00;49.80;;;;;;5086474;28;20036;-62
2023/10/16 12:19:17;;;;;;;1.05;0.80;;;16.10;49.70;;;;;;5087356;28;20031;-62
2023/10/16 12:21:48;;;;;;;2.03;0.70;;;16.20;48.90;;;;;;5081638;28;20023;-62
2023/10/16 12:24:13;;;;;;;1.83;0.90;;;16.20;48.70;;;;;;5080550;28;20526;-61
2023/10/16 12:26:42;;;;;;;1.50;0.80;;;16.30;49.10;;;;;;5088894;28;20184;-61
2023/10/16 12:29:09;;;;;;;3.88;1.27;;;16.40;48.80;;;;;;5094144;28;20748;-62
2023/10/16 12:31:35;;;;;;;1.42;0.90;;;16.40;48.00;;;;;;5084600;28;20497;-61
2023/10/16 12:34:01;;;;;;;1.95;1.00;;;16.50;48.50;;;;;;5085110;28;20017;-62
2023/10/16 12:36:29;;;;;;;1.75;1.00;;;16.50;48.50;;;;;;5086533;28;20403;-62
2023/10/16 12:38:54;;;;;;;2.03;0.90;;;16.60;48.00;;;;;;5089232;28;20028;-62
2023/10/16 12:41:21;;;;;;;2.03;1.20;;;16.60;48.10;;;;;;5085910;28;20035;-62
2023/10/16 12:43:48;;;;;;;1.25;1.00;;;16.70;48.30;;;;;;5086937;28;20454;-63
2023/10/16 12:46:14;;;;;;;1.45;1.02;;;16.70;47.50;;;;;;5089919;28;20050;-63
2023/10/16 12:48:39;;;;;;;1.35;1.00;;;16.70;47.70;;;;;;5092734;28;20019;-62
2023/10/16 12:51:10;;;;;;;5.55;1.02;;;16.70;48.20;;;;;;5082935;28;20063;-61
2023/10/16 12:53:39;;;;;;;4.53;1.17;;;16.80;48.10;;;;;;5089651;28;20020;-62
2023/10/16 12:56:06;;;;;;;2.17;1.20;;;16.80;48.10;;;;;;5089174;28;20111;-62
2023/10/16 12:58:34;;;;;;;2.03;1.15;;;16.80;48.30;;;;;;5089881;28;20115;-62
2023/10/16 13:01:10;;;;;;;1.67;0.90;;;16.90;47.20;;;;;;5086956;28;20020;-62
2023/10/16 13:03:36;;;;;;;1.90;1.00;;;16.90;47.00;;;;;;5086278;28;20032;-62
2023/10/16 13:06:08;;;;;;;1.38;0.90;;;16.90;47.40;;;;;;5088992;28;20426;-61
2023/10/16 13:08:34;;;;;;;2.42;0.90;;;17.00;47.10;;;;;;5085797;28;20024;-61
2023/10/16 13:10:59;;;;;;;1.40;0.90;;;17.00;46.90;;;;;;5088578;28;20040;-62
2023/10/16 13:13:25;;;;;;;1.83;0.90;;;17.00;45.70;;;;;;5085923;28;20027;-62
2023/10/16 13:15:58;;;;;;;1.77;1.00;;;17.10;46.30;;;;;;5087879;28;20486;-63
2023/10/16 13:18:27;;;;;;;1.83;1.00;;;17.10;46.60;;;;;;5085661;28;20592;-61
2023/10/16 13:21:07;;;;;;;3.22;0.88;;;17.10;46.60;;;;;;5085102;28;20094;-61
2023/10/16 13:23:36;;;;;;;1.83;1.00;;;17.20;46.40;;;;;;5080056;28;20093;-62
2023/10/16 13:26:03;;;;;;;1.40;1.00;;;17.30;46.70;;;;;;5086641;28;20056;-62
2023/10/16 13:28:30;;;;;;;1.48;0.90;;;17.40;46.80;;;;;;5087902;28;20031;-61
2023/10/16 13:30:56;;;;;;;3.35;1.10;;;17.50;46.50;;;;;;5080392;28;20048;-63
2023/10/16 13:33:22;;;;;;;1.08;0.80;;;17.50;45.50;;;;;;5083986;28;20048;-62
2023/10/16 13:35:50;;;;;;;1.55;0.70;;;17.60;46.10;;;;;;5084132;28;20054;-62
2023/10/16 13:38:18;;;;;;;1.60;0.90;;;17.70;45.80;;;;;;5083881;28;20137;-62
2023/10/16 13:40:46;;;;;;;0.60;0.60;;;17.80;45.40;;;;;;5087017;28;20073;-62
2023/10/16 13:43:12;;;;;;;1.33;0.80;;;17.80;44.30;;;;;;5085803;28;20024;-62
2023/10/16 13:45:39;;;;;;;2.30;0.90;;;17.80;44.20;;;;;;4995346;28;20958;-63
2023/10/16 13:48:09;;;;;;;1.65;0.73;;;17.90;44.20;;;;;;5082671;28;20040;-62
2023/10/16 13:50:36;;;;;;;2.05;0.75;;;17.90;44.00;;;;;;5088337;28;20427;-62
2023/10/16 13:53:08;;;;;;;1.58;0.55;;;17.90;43.70;;;;;;5091481;28;20148;-61
2023/10/16 13:55:33;;;;;;;0.45;0.43;;;18.00;42.70;;;;;;5091272;28;20044;-62
2023/10/16 13:57:59;;;;;;;0.73;0.60;;;18.00;41.90;;;;;;5088452;28;20064;-63
2023/10/16 14:00:38;;;;;;;0.80;0.63;;;18.00;41.90;;;;;;5086630;28;20109;-62
2023/10/16 14:05:47;;;;;;;1.77;0.70;;;18.10;41.50;;;;;;5082588;28;20035;-62
2023/10/16 14:08:14;;;;;;;2.05;0.88;;;18.10;41.40;;;;;;5086748;28;20085;-62
2023/10/16 14:10:52;;;;;;;1.02;0.77;;;18.20;42.30;;;;;;5084995;28;20363;-61
2023/10/16 14:13:19;;;;;;;1.10;0.70;;;18.20;42.60;;;;;;5083982;28;20031;-62
2023/10/16 14:15:51;;;;;;;0.98;0.60;;;18.20;41.90;;;;;;5066006;28;20032;-62
2023/10/16 14:18:24;;;;;;;1.85;0.90;;;18.30;41.10;;;;;;5082214;28;20396;-61
2023/10/16 14:20:50;;;;;;;1.00;0.73;;;18.30;42.10;;;;;;5087618;28;20028;-61
2023/10/16 14:23:18;;;;;;;2.22;0.90;;;18.40;42.00;;;;;;5087231;28;20085;-62
2023/10/16 14:25:49;;;;;;;1.55;0.98;;;18.50;42.00;;;;;;5085939;28;20048;-62
2023/10/16 14:28:51;;;;;;;2.33;0.80;;;18.50;41.90;;;;;;5082582;28;20032;-63
2023/10/16 14:31:11;;;;;;;1.27;0.70;;;18.60;41.40;;;;;;5075317;28;20047;-60
2023/10/16 14:33:37;;;;;;;2.13;1.10;;;18.70;42.10;;;;;;5081114;28;20036;-61
2023/10/16 14:36:09;;;;;;;1.35;0.90;;;18.80;41.70;;;;;;5083859;28;20032;-60
2023/10/16 14:38:37;;;;;;;1.45;0.85;;;18.80;41.20;;;;;;5086357;28;20112;-61
2023/10/16 14:41:08;;;;;;;1.80;1.00;;;18.90;41.50;;;;;;5088876;28;20559;-61
2023/10/16 14:43:37;;;;;;;1.55;1.00;;;18.90;41.40;;;;;;5085554;28;20020;-61
2023/10/16 14:46:10;;;;;;;1.23;1.00;;;18.90;40.40;;;;;;4973467;28;20032;-61
2023/10/16 14:48:42;;;;;;;1.63;1.08;;;18.90;40.50;;;;;;5077028;28;20024;-62
2023/10/16 14:51:13;;;;;;;2.78;1.10;;;18.90;41.20;;;;;;5087014;28;20043;-62
2023/10/16 14:53:44;;;;;;;1.15;0.90;;;18.80;41.10;;;;;;5087348;28;20119;-60
2023/10/16 14:56:11;;;;;;;3.85;1.42;;;18.80;40.50;;;;;;5089876;28;20486;-61
2023/10/16 14:58:38;;;;;;;1.45;1.02;;;18.90;40.90;;;;;;5089672;28;20020;-62
2023/10/16 15:01:17;;;;;;;1.35;1.00;;;18.90;40.80;;;;;;5092958;28;20073;-62
2023/10/16 15:03:43;;;;;;;2.28;1.30;;;18.90;40.70;;;;;;5087300;28;20031;-61
2023/10/16 15:06:11;;;;;;;1.85;1.48;;;18.90;41.00;;;;;;5090604;28;20047;-63
2023/10/16 15:08:37;;;;;;;2.42;1.20;;;19.00;40.40;;;;;;5092939;28;20936;-63
2023/10/16 15:11:03;;;;;;;3.42;0.90;;;19.00;40.30;;;;;;5093760;28;20035;-64
2023/10/16 15:13:29;;;;;;;3.53;1.42;;;19.00;39.90;;;;;;5093613;28;20024;-62
2023/10/16 15:15:58;;;;;;;1.45;1.08;;;19.00;39.90;;;;;;5089220;28;20477;-63
2023/10/16 15:18:23;;;;;;;1.80;0.90;;;19.00;39.80;;;;;;5092047;28;20113;-62
2023/10/16 15:20:50;;;;;;;2.50;1.27;;;19.00;39.90;;;;;;5090646;28;20028;-63
2023/10/16 15:23:16;;;;;;;3.70;1.20;;;19.00;40.00;;;;;;5092054;28;20085;-62